PLVO2: Washita River nr Pauls Valley, OK

Data processed at Mon Apr 24 2017 21:48


All information presented herein is the property of the government of the United States of America and may be revised or deleted at any time without prior notice.
Dissemination of this information without the expressed written consent of the Public Affairs Office, Tulsa District U.S. Army Corps of Engineers is strictly prohibited.
These data are gathered electronically and, as presented, have not undergone any form of quality control. These data are not guaranteed to be valid or correct.
Go to home page.
Go to station list.
Go to station map.

Upstream stations:

Downstream station:
Previous Day
Next Day
Current Day
    
SHEF ID:       PLVO2     Washita River near Pauls Valley
STATION TYPE:  

               PRECIP     STAGE  RIV-FLOW  BAT-LOAD
                   in        ft       cfs      volt
              Ccp-Rev   Ccp-Rev   Ccp-Rev   Ccp-Rev
(US/Central)
04/24 00:00      0.00      7.38      1155     12.73
04/24 01:00      0.00      7.37      1150     12.65
04/24 02:00      0.00      7.37      1150     12.65
04/24 03:00      0.00      7.36      1145     12.65
04/24 04:00      0.00      7.35      1139     12.57
04/24 05:00      0.00      7.34      1134     12.57
04/24 06:00      0.00      7.33      1129     12.49
04/24 07:00      0.00      7.31      1118     12.49
04/24 08:00      0.00      7.29      1108     12.49
04/24 09:00      0.00      7.27      1097     12.57
04/24 10:00      0.00      7.26      1092     12.65
04/24 11:00      0.00      7.22      1071     12.81
04/24 12:00      0.00      7.20      1061     13.05
04/24 13:00      0.00      7.18      1051     13.13
04/24 14:00      0.00      7.15      1035     13.21
04/24 15:00      0.00      7.13      1025     13.29
04/24 16:00      0.00      7.09      1005     13.13
04/24 17:00      0.00      7.07       994     13.05
04/24 18:00      0.00      7.04       977     12.97
04/24 19:00      0.00      7.00       955     12.97
04/24 20:00      0.00      6.98       943     12.89
04/24 21:00      0.00      6.96      ----     12.81
04/24 22:00      ----      ----      ----      ----
04/24 23:00      ----      ----      ----      ----